Time;durP1;ratioP1;P1;durP2;ratioP2;P2;SDS_P1;SDS_P2;PMS_P1;PMS_P2;Temp;Humidity;BMP_temperature;BMP_pressure;BME280_temperature;BME280_humidity;BME280_pressure;Samples;Min_cycle;Max_cycle;Signal;HPM_P1;HPM_P2
2022/12/21 00:02:13;;;;;;;;;;;16.10;73.10;;;;;;5093569;28;19908;-91
2022/12/21 00:04:38;;;;;;;;;;;16.10;73.20;;;;;;5093809;28;19908;-90
2022/12/21 00:07:04;;;;;;;;;;;16.10;73.20;;;;;;5095743;28;19914;-91
2022/12/21 00:09:29;;;;;;;;;;;16.10;73.20;;;;;;5094590;28;20010;-90
2022/12/21 00:11:55;;;;;;;;;;;16.10;73.40;;;;;;5096223;28;20011;-90
2022/12/21 00:14:21;;;;;;;;;;;16.10;73.50;;;;;;5096030;28;19947;-91
2022/12/21 00:16:46;;;;;;;;;;;16.10;73.60;;;;;;5095772;28;19908;-90
2022/12/21 00:19:13;;;;;;;;;;;16.10;73.70;;;;;;5095208;28;20351;-90
2022/12/21 00:21:39;;;;;;;;;;;16.00;73.70;;;;;;5095665;28;19908;-90
2022/12/21 00:24:04;;;;;;;;;;;16.00;73.80;;;;;;5095053;28;20171;-90
2022/12/21 00:26:31;;;;;;;;;;;16.00;73.90;;;;;;5095893;28;19924;-91
2022/12/21 00:28:57;;;;;;;;;;;16.00;74.00;;;;;;5093980;28;20061;-90
2022/12/21 00:31:24;;;;;;;;;;;16.00;74.10;;;;;;5093681;28;19908;-91
2022/12/21 00:33:50;;;;;;;;;;;16.00;74.10;;;;;;5093385;28;20305;-90
2022/12/21 00:36:17;;;;;;;;;;;16.00;74.20;;;;;;5092400;28;19995;-90
2022/12/21 00:38:43;;;;;;;;;;;16.00;74.30;;;;;;5092744;28;19951;-91
2022/12/21 00:41:11;;;;;;;;;;;16.00;74.30;;;;;;5092390;28;19950;-90
2022/12/21 00:43:38;;;;;;;;;;;16.00;74.40;;;;;;5093234;28;19913;-91
2022/12/21 00:46:04;;;;;;;;;;;15.90;74.40;;;;;;5093365;28;20268;-90
2022/12/21 00:48:30;;;;;;;;;;;15.90;74.50;;;;;;5093928;28;19991;-91
2022/12/21 00:51:07;;;;;;;;;;;15.90;75.10;;;;;;5093111;28;19908;-90
2022/12/21 00:53:33;;;;;;;;;;;15.90;74.60;;;;;;5093177;28;19944;-90
2022/12/21 00:55:59;;;;;;;;;;;15.90;74.80;;;;;;5093860;28;19947;-90
2022/12/21 00:58:25;;;;;;;;;;;15.90;74.80;;;;;;5093993;28;20167;-90
2022/12/21 01:00:54;;;;;;;;;;;15.90;74.80;;;;;;5094641;28;19934;-90
2022/12/21 01:03:21;;;;;;;;;;;15.90;74.90;;;;;;5094251;28;19916;-90
2022/12/21 01:05:47;;;;;;;;;;;15.90;75.00;;;;;;5094066;28;19912;-90
2022/12/21 01:08:12;;;;;;;;;;;15.90;75.00;;;;;;5093187;28;19998;-90
2022/12/21 01:10:38;;;;;;;;;;;15.90;75.10;;;;;;5092386;28;19908;-90
2022/12/21 01:13:04;;;;;;;;;;;15.90;75.10;;;;;;5094070;28;19908;-90
2022/12/21 01:15:29;;;;;;;;;;;15.90;75.10;;;;;;5094044;28;19908;-91
2022/12/21 01:17:55;;;;;;;;;;;15.90;75.20;;;;;;5092981;28;19969;-90
2022/12/21 01:20:21;;;;;;;;;;;15.80;75.20;;;;;;5094972;28;19919;-90
2022/12/21 01:25:50;;;;;;;;;;;15.80;75.30;;;;;;5095895;28;20015;-92
2022/12/21 01:28:16;;;;;;;;;;;15.80;75.40;;;;;;5094643;28;20433;-91
2022/12/21 01:30:42;;;;;;;;;;;15.80;75.40;;;;;;5094486;28;20300;-91
2022/12/21 01:33:11;;;;;;;;;;;15.80;75.50;;;;;;5094461;28;19977;-91
2022/12/21 01:35:40;;;;;;;;;;;15.80;75.60;;;;;;5095906;28;19908;-91
2022/12/21 01:38:06;;;;;;;;;;;15.80;75.60;;;;;;5096113;28;19930;-92
2022/12/21 01:40:32;;;;;;;;;;;15.80;75.70;;;;;;5097214;28;19908;-92
2022/12/21 01:42:58;;;;;;;;;;;15.80;75.70;;;;;;5097915;28;19908;-91
2022/12/21 01:45:26;;;;;;;;;;;15.80;75.70;;;;;;5095338;28;19919;-91
2022/12/21 01:47:55;;;;;;;;;;;15.80;75.80;;;;;;5096602;28;19915;-91
2022/12/21 01:50:24;;;;;;;;;;;15.80;75.80;;;;;;5095988;28;20034;-91
2022/12/21 01:52:51;;;;;;;;;;;15.80;75.80;;;;;;5098331;28;19938;-92
2022/12/21 01:55:17;;;;;;;;;;;15.80;75.90;;;;;;5097718;28;19919;-92
2022/12/21 01:57:42;;;;;;;;;;;15.80;75.90;;;;;;5099146;28;19998;-92
2022/12/21 02:00:09;;;;;;;;;;;15.80;75.90;;;;;;5099396;28;20190;-91
2022/12/21 02:02:37;;;;;;;;;;;15.80;76.00;;;;;;5100056;28;19915;-91
2022/12/21 02:05:10;;;;;;;;;;;15.80;76.10;;;;;;5088962;22;19931;-2
2022/12/21 02:07:40;;;;;;;;;;;15.80;76.70;;;;;;5050792;28;19963;-2
2022/12/21 02:10:06;;;;;;;;;;;15.70;76.10;;;;;;5074556;28;20023;-3
2022/12/21 02:12:32;;;;;;;;;;;15.70;76.10;;;;;;5073804;28;19916;-2
2022/12/21 02:15:00;;;;;;;;;;;15.70;76.20;;;;;;5075395;28;19913;-3
2022/12/21 02:17:41;;;;;;;;;;;15.70;76.30;;;;;;5074479;28;19912;-2
2022/12/21 02:20:10;;;;;;;;;;;15.70;76.60;;;;;;5075714;28;19912;-3
2022/12/21 02:22:38;;;;;;;;;;;15.70;76.50;;;;;;5092678;28;20273;-2
2022/12/21 02:25:30;;;;;;;;;;;15.80;76.60;;;;;;5077840;28;20181;-3
2022/12/21 02:28:14;;;;;;;;;;;15.70;76.50;;;;;;5054292;28;20119;-2
2022/12/21 02:31:00;;;;;;;;;;;15.70;76.60;;;;;;5059030;28;19947;-3
2022/12/21 02:33:25;;;;;;;;;;;15.70;76.60;;;;;;5075743;28;20033;-3
2022/12/21 02:35:57;;;;;;;;;;;15.70;76.60;;;;;;5075710;28;19981;-2
2022/12/21 02:38:41;;;;;;;;;;;15.70;76.60;;;;;;5076847;28;20258;-2
2022/12/21 02:41:11;;;;;;;;;;;15.70;76.60;;;;;;5076835;28;19915;-2
2022/12/21 02:44:14;;;;;;;;;;;15.70;76.70;;;;;;5076293;28;19935;-2
2022/12/21 02:46:42;;;;;;;;;;;15.70;76.80;;;;;;5078307;28;19961;-2
2022/12/21 02:49:22;;;;;;;;;;;15.70;76.80;;;;;;5093348;28;20391;-3
2022/12/21 02:51:51;;;;;;;;;;;15.70;76.80;;;;;;5076232;28;20174;-2
2022/12/21 02:54:17;;;;;;;;;;;15.60;76.80;;;;;;5076045;28;19915;-3
2022/12/21 02:56:46;;;;;;;;;;;15.70;77.50;;;;;;5076101;28;19908;-3
2022/12/21 02:59:17;;;;;;;;;;;15.60;76.90;;;;;;5077059;28;19912;-2
2022/12/21 03:01:48;;;;;;;;;;;15.60;76.90;;;;;;5078350;28;20277;-20
2022/12/21 03:04:29;;;;;;;;;;;15.60;77.00;;;;;;5094210;28;19920;-2
2022/12/21 03:07:05;;;;;;;;;;;15.60;77.10;;;;;;5060997;28;19909;-2
2022/12/21 03:09:40;;;;;;;;;;;15.60;77.10;;;;;;5078700;28;19991;-2
2022/12/21 03:12:17;;;;;;;;;;;15.60;77.10;;;;;;5060663;28;19908;-2
2022/12/21 03:14:54;;;;;;;;;;;15.60;77.10;;;;;;5060288;28;19908;-3
2022/12/21 03:17:39;;;;;;;;;;;15.60;77.10;;;;;;5078406;28;19966;-3
2022/12/21 03:20:05;;;;;;;;;;;15.60;77.20;;;;;;5079065;28;19967;-2
2022/12/21 03:22:30;;;;;;;;;;;15.60;77.20;;;;;;5061245;28;19944;-2
2022/12/21 03:25:22;;;;;;;;;;;15.60;77.30;;;;;;5060971;28;20260;-2
2022/12/21 03:27:50;;;;;;;;;;;15.60;77.30;;;;;;5061856;28;20037;-2
2022/12/21 03:30:19;;;;;;;;;;;15.60;77.40;;;;;;5059509;28;19919;-2
2022/12/21 03:32:45;;;;;;;;;;;15.60;77.50;;;;;;5058541;28;19909;-2
2022/12/21 03:35:31;;;;;;;;;;;15.60;77.50;;;;;;5077080;28;19923;-3
2022/12/21 03:37:58;;;;;;;;;;;15.60;77.60;;;;;;5048714;28;20006;-2
2022/12/21 03:40:25;;;;;;;;;;;15.60;77.70;;;;;;5058838;28;20006;-2
2022/12/21 03:43:03;;;;;;;;;;;15.60;77.80;;;;;;5075361;28;19923;-3
2022/12/21 03:45:55;;;;;;;;;;;15.50;77.70;;;;;;5077005;28;19912;-2
2022/12/21 03:48:24;;;;;;;;;;;15.50;77.80;;;;;;5074325;28;19912;-2
2022/12/21 03:50:50;;;;;;;;;;;15.50;77.90;;;;;;5076227;28;19913;-3
2022/12/21 03:53:34;;;;;;;;;;;15.50;78.10;;;;;;5075913;28;19927;-3
2022/12/21 03:56:01;;;;;;;;;;;15.50;78.10;;;;;;5058935;28;19912;-2
2022/12/21 03:58:30;;;;;;;;;;;15.50;78.30;;;;;;5058661;28;19924;-3
2022/12/21 04:01:03;;;;;;;;;;;15.50;78.40;;;;;;5057546;28;19916;-2
2022/12/21 04:03:33;;;;;;;;;;;15.50;78.50;;;;;;5075211;28;19948;-2
2022/12/21 04:06:19;;;;;;;;;;;15.40;78.40;;;;;;5077123;28;19916;-2
2022/12/21 04:08:45;;;;;;;;;;;15.50;78.60;;;;;;5075842;28;19908;-2
2022/12/21 04:14:34;;;;;;;;;;;16.70;71.80;;;;;;5033297;28;20368;-3
2022/12/21 04:16:59;;;;;;;;;;;17.80;64.70;;;;;;5031090;28;19909;-2
2022/12/21 04:22:09;;;;;;;;;;;18.20;61.80;;;;;;5073623;28;19935;-2
2022/12/21 04:30:08;;;;;;;;;;;18.50;59.90;;;;;;5071007;28;20736;-3
2022/12/21 04:32:34;;;;;;;;;;;18.50;59.60;;;;;;5072115;28;19908;-2
2022/12/21 04:34:59;;;;;;;;;;;18.60;59.50;;;;;;5055166;28;19917;-2
2022/12/21 04:37:43;;;;;;;;;;;18.60;59.40;;;;;;5073988;28;19919;-3
2022/12/21 04:40:09;;;;;;;;;;;18.60;59.30;;;;;;5057342;28;19913;-3
2022/12/21 04:42:34;;;;;;;;;;;18.60;59.30;;;;;;5074811;28;20397;-2
2022/12/21 04:45:00;;;;;;;;;;;18.60;59.40;;;;;;5076074;28;20162;-3
2022/12/21 04:47:25;;;;;;;;;;;18.50;59.40;;;;;;5057870;28;19908;-3
2022/12/21 04:49:51;;;;;;;;;;;18.40;59.50;;;;;;5074791;28;20046;-2
2022/12/21 04:52:17;;;;;;;;;;;18.40;59.80;;;;;;5075734;28;20174;-2
2022/12/21 04:54:45;;;;;;;;;;;18.30;60.10;;;;;;5073082;28;20160;-2
2022/12/21 04:57:11;;;;;;;;;;;18.20;60.30;;;;;;5072598;28;19912;-3
2022/12/21 04:59:36;;;;;;;;;;;18.20;60.70;;;;;;5074239;28;19924;-3
2022/12/21 05:02:05;;;;;;;;;;;18.10;61.00;;;;;;5056608;28;20001;-3
2022/12/21 05:04:30;;;;;;;;;;;18.00;61.50;;;;;;5055794;28;19954;-4
2022/12/21 05:06:56;;;;;;;;;;;18.00;62.00;;;;;;5055109;28;20019;-3
2022/12/21 05:09:27;;;;;;;;;;;17.90;62.40;;;;;;5086973;28;20204;-3
2022/12/21 05:11:54;;;;;;;;;;;17.80;62.80;;;;;;5070961;28;19998;-2
2022/12/21 05:14:20;;;;;;;;;;;17.70;63.20;;;;;;5055355;28;19908;-2
2022/12/21 05:16:45;;;;;;;;;;;17.60;63.50;;;;;;5072272;28;19920;-4
2022/12/21 05:19:11;;;;;;;;;;;17.60;64.00;;;;;;5054216;28;19924;-3
2022/12/21 05:21:37;;;;;;;;;;;17.50;64.30;;;;;;5070811;28;20102;-4
2022/12/21 05:24:05;;;;;;;;;;;17.50;64.70;;;;;;5053804;28;19920;-3
2022/12/21 05:26:31;;;;;;;;;;;17.40;65.10;;;;;;5072094;28;19951;-4
2022/12/21 05:28:56;;;;;;;;;;;17.30;65.50;;;;;;5054669;28;19944;-3
2022/12/21 05:31:22;;;;;;;;;;;17.30;66.00;;;;;;5053429;28;20242;-3
2022/12/21 05:33:52;;;;;;;;;;;17.20;66.20;;;;;;5055217;28;19936;-3
2022/12/21 05:36:17;;;;;;;;;;;17.20;66.70;;;;;;5053816;28;19909;-4
2022/12/21 05:38:44;;;;;;;;;;;17.10;67.10;;;;;;5072694;28;20223;-4
2022/12/21 05:41:13;;;;;;;;;;;17.00;67.50;;;;;;5072774;28;20292;-3
2022/12/21 05:43:39;;;;;;;;;;;16.90;68.00;;;;;;5071637;28;19908;-3
2022/12/21 05:46:06;;;;;;;;;;;16.90;68.50;;;;;;5054938;28;19945;-4
2022/12/21 05:48:32;;;;;;;;;;;16.90;69.00;;;;;;5073188;28;19959;-4
2022/12/21 05:50:57;;;;;;;;;;;16.80;69.50;;;;;;5072636;28;20013;-3
2022/12/21 05:53:23;;;;;;;;;;;16.80;69.90;;;;;;5071662;28;20007;-4
2022/12/21 05:55:49;;;;;;;;;;;16.70;70.80;;;;;;5071155;28;19966;-4
2022/12/21 05:58:21;;;;;;;;;;;16.60;70.40;;;;;;5052149;28;19944;-3
2022/12/21 06:00:47;;;;;;;;;;;16.60;70.90;;;;;;5148544;23;20242;-5
2022/12/21 06:03:12;;;;;;;;;;;16.60;71.20;;;;;;5051875;28;19963;-4
2022/12/21 06:05:41;;;;;;;;;;;16.50;71.50;;;;;;5068514;28;19923;-4
2022/12/21 06:08:09;;;;;;;;;;;16.50;72.00;;;;;;5071249;28;20308;-4
2022/12/21 06:10:36;;;;;;;;;;;16.40;72.40;;;;;;5053898;28;20151;-5
2022/12/21 06:13:02;;;;;;;;;;;16.40;72.60;;;;;;5054712;28;19908;-4
2022/12/21 06:15:28;;;;;;;;;;;16.40;73.00;;;;;;5072370;28;19909;-4
2022/12/21 06:17:53;;;;;;;;;;;16.40;73.00;;;;;;5071401;28;20004;-4
2022/12/21 06:20:19;;;;;;;;;;;16.30;73.10;;;;;;5072106;28;20110;-4
2022/12/21 06:22:45;;;;;;;;;;;16.30;73.30;;;;;;5073310;28;20202;-4
2022/12/21 06:25:10;;;;;;;;;;;16.30;73.40;;;;;;5074417;28;19917;-5
2022/12/21 06:27:36;;;;;;;;;;;16.30;73.50;;;;;;5073363;28;19932;-4
2022/12/21 06:30:02;;;;;;;;;;;16.30;73.70;;;;;;5053117;28;20163;-4
2022/12/21 06:32:27;;;;;;;;;;;16.40;73.60;;;;;;5071451;28;20255;-4
2022/12/21 06:34:53;;;;;;;;;;;16.40;73.40;;;;;;5072577;28;19920;-4
2022/12/21 06:37:19;;;;;;;;;;;16.50;73.10;;;;;;5050514;28;19908;-4
2022/12/21 06:39:45;;;;;;;;;;;16.60;72.70;;;;;;5051197;28;19978;-4
2022/12/21 06:42:10;;;;;;;;;;;16.70;72.10;;;;;;5052496;28;19970;-4
2022/12/21 06:44:39;;;;;;;;;;;16.80;71.60;;;;;;5059297;28;19920;-4
2022/12/21 06:47:11;;;;;;;;;;;16.90;71.20;;;;;;5059096;28;19909;-4
2022/12/21 06:49:36;;;;;;;;;;;17.00;70.70;;;;;;5051991;28;20037;-4
2022/12/21 06:52:02;;;;;;;;;;;17.00;70.10;;;;;;5046204;28;20138;-4
2022/12/21 06:54:27;;;;;;;;;;;17.10;69.70;;;;;;5048554;28;20004;-4
2022/12/21 06:56:53;;;;;;;;;;;17.10;69.50;;;;;;5050020;28;20186;-4
2022/12/21 06:59:21;;;;;;;;;;;17.20;69.30;;;;;;5048051;28;20071;-13
2022/12/21 07:01:50;;;;;;;;;;;17.20;69.20;;;;;;5078490;22;19959;-81
2022/12/21 07:04:15;;;;;;;;;;;17.20;69.20;;;;;;5050990;28;19946;-81
2022/12/21 07:06:41;;;;;;;;;;;17.10;70.00;;;;;;5051461;28;19909;-81
2022/12/21 07:09:07;;;;;;;;;;;17.10;69.60;;;;;;5050979;28;20116;-82
2022/12/21 07:11:35;;;;;;;;;;;17.10;70.00;;;;;;5050966;28;20009;-81
2022/12/21 07:14:03;;;;;;;;;;;17.00;70.30;;;;;;5051044;28;19948;-82
2022/12/21 07:16:31;;;;;;;;;;;16.90;70.80;;;;;;5041391;28;19919;-82
2022/12/21 07:19:02;;;;;;;;;;;16.90;72.00;;;;;;5050171;28;19998;-82
2022/12/21 07:21:28;;;;;;;;;;;16.80;72.00;;;;;;5053541;28;19981;-82
2022/12/21 07:23:59;;;;;;;;;;;16.70;72.50;;;;;;5052011;28;19909;-82
2022/12/21 07:26:27;;;;;;;;;;;16.70;73.20;;;;;;5051972;28;19917;-82
2022/12/21 07:28:59;;;;;;;;;;;16.60;73.70;;;;;;5051353;28;19908;-83
2022/12/21 07:31:25;;;;;;;;;;;16.60;74.40;;;;;;5048787;28;19909;-82
2022/12/21 07:33:51;;;;;;;;;;;16.50;74.80;;;;;;5049250;28;20000;-82
2022/12/21 07:36:23;;;;;;;;;;;16.50;75.30;;;;;;5048475;28;19909;-82
2022/12/21 07:38:53;;;;;;;;;;;16.50;75.70;;;;;;5050312;28;19938;-82
2022/12/21 07:41:20;;;;;;;;;;;16.50;76.00;;;;;;5051400;28;19909;-82
2022/12/21 07:43:49;;;;;;;;;;;16.40;76.20;;;;;;5050333;28;20196;-82
2022/12/21 07:46:17;;;;;;;;;;;16.40;76.50;;;;;;5049218;28;19916;-82
2022/12/21 07:48:45;;;;;;;;;;;16.40;76.90;;;;;;5050289;28;19909;-83
2022/12/21 07:51:13;;;;;;;;;;;16.30;77.10;;;;;;5049953;28;19904;-82
2022/12/21 07:53:39;;;;;;;;;;;16.30;77.30;;;;;;5050185;28;19950;-82
2022/12/21 07:56:07;;;;;;;;;;;16.30;77.50;;;;;;5051436;28;20125;-82
2022/12/21 07:58:34;;;;;;;;;;;16.30;77.80;;;;;;5050375;28;20019;-82
2022/12/21 08:01:09;;;;;;;;;;;16.20;77.90;;;;;;5051956;28;19931;-82
2022/12/21 08:03:38;;;;;;;;;;;16.20;78.20;;;;;;5052919;28;19920;-82
2022/12/21 08:06:04;;;;;;;;;;;16.20;78.40;;;;;;5052748;28;19917;-81
2022/12/21 08:08:30;;;;;;;;;;;16.20;78.50;;;;;;5053077;28;19908;-82
2022/12/21 08:11:12;;;;;;;;;;;16.20;78.70;;;;;;5051515;28;20082;-82
2022/12/21 08:13:41;;;;;;;;;;;16.20;78.90;;;;;;5053251;28;19908;-82
2022/12/21 08:16:11;;;;;;;;;;;16.20;79.10;;;;;;5051691;28;19962;-82
2022/12/21 08:18:40;;;;;;;;;;;16.20;79.40;;;;;;5052387;28;19920;-82
2022/12/21 08:21:06;;;;;;;;;;;16.20;79.30;;;;;;5051168;28;19978;-82
2022/12/21 08:23:31;;;;;;;;;;;16.40;79.00;;;;;;5058008;28;19943;-81
2022/12/21 08:26:05;;;;;;;;;;;16.50;77.80;;;;;;5058889;28;20004;-82
2022/12/21 08:28:34;;;;;;;;;;;16.70;76.50;;;;;;5055603;28;20015;-82
2022/12/21 08:31:16;;;;;;;;;;;16.90;74.70;;;;;;5051409;28;19986;-82
2022/12/21 08:33:45;;;;;;;;;;;17.20;73.20;;;;;;5050911;28;20202;-82
2022/12/21 08:36:15;;;;;;;;;;;17.40;71.40;;;;;;5050821;28;19926;-82
2022/12/21 08:38:41;;;;;;;;;;;17.70;69.80;;;;;;5050075;28;20110;-82
2022/12/21 08:41:08;;;;;;;;;;;17.90;68.40;;;;;;5050465;28;19909;-82
2022/12/21 08:43:37;;;;;;;;;;;18.00;67.20;;;;;;5050086;28;19973;-82
2022/12/21 08:46:08;;;;;;;;;;;18.00;66.70;;;;;;5050913;28;19965;-82
2022/12/21 08:48:34;;;;;;;;;;;18.00;66.60;;;;;;5050996;28;19917;-82
2022/12/21 08:51:00;;;;;;;;;;;18.00;66.60;;;;;;5050715;28;19931;-82
2022/12/21 08:53:26;;;;;;;;;;;18.00;66.70;;;;;;5053221;28;19915;-82
2022/12/21 08:55:52;;;;;;;;;;;18.00;66.90;;;;;;5051963;28;19948;-81
2022/12/21 08:58:17;;;;;;;;;;;17.90;67.10;;;;;;5056552;28;19908;-81
2022/12/21 09:00:43;;;;;;;;;;;17.90;67.50;;;;;;5057372;28;20235;-82
2022/12/21 09:03:10;;;;;;;;;;;17.80;67.70;;;;;;5053898;28;19924;-82
2022/12/21 09:05:43;;;;;;;;;;;17.70;68.20;;;;;;5051735;28;20300;-82
2022/12/21 09:08:09;;;;;;;;;;;17.60;68.70;;;;;;5057179;28;19908;-81
2022/12/21 09:10:35;;;;;;;;;;;17.60;69.40;;;;;;5056292;28;20004;-81
2022/12/21 09:13:01;;;;;;;;;;;17.50;70.00;;;;;;5055882;28;20449;-82
2022/12/21 09:15:27;;;;;;;;;;;17.40;70.70;;;;;;5056532;28;19912;-81
2022/12/21 09:17:53;;;;;;;;;;;17.30;71.20;;;;;;5058102;28;19908;-82
2022/12/21 09:20:18;;;;;;;;;;;17.20;71.90;;;;;;5058491;28;19930;-81
2022/12/21 09:22:47;;;;;;;;;;;17.10;72.70;;;;;;5056957;28;19961;-81
2022/12/21 09:25:13;;;;;;;;;;;17.10;73.40;;;;;;5057845;28;19916;-81
2022/12/21 09:27:39;;;;;;;;;;;17.00;74.00;;;;;;5057983;28;20061;-81
2022/12/21 09:30:05;;;;;;;;;;;16.90;74.70;;;;;;5057456;28;19939;-81
2022/12/21 09:32:35;;;;;;;;;;;16.80;75.20;;;;;;5057443;28;19908;-81
2022/12/21 09:35:04;;;;;;;;;;;16.80;75.60;;;;;;5058385;28;19919;-81
2022/12/21 09:37:29;;;;;;;;;;;16.80;76.10;;;;;;5057754;28;19912;-81
2022/12/21 09:39:55;;;;;;;;;;;16.80;76.50;;;;;;5054400;28;19912;-81
2022/12/21 09:42:33;;;;;;;;;;;16.70;76.70;;;;;;5053733;28;19919;-81
2022/12/21 09:45:01;;;;;;;;;;;16.70;77.10;;;;;;5055141;28;19909;-81
2022/12/21 09:47:34;;;;;;;;;;;16.60;77.40;;;;;;5055813;28;20135;-80
2022/12/21 09:50:02;;;;;;;;;;;16.60;77.70;;;;;;5054422;28;20105;-81
2022/12/21 09:52:31;;;;;;;;;;;16.60;77.90;;;;;;5056345;28;19924;-81
2022/12/21 09:55:02;;;;;;;;;;;16.60;78.10;;;;;;5060735;28;19913;-81
2022/12/21 09:57:30;;;;;;;;;;;16.60;78.40;;;;;;5062188;28;19912;-81
2022/12/21 09:59:59;;;;;;;;;;;16.60;78.80;;;;;;5058452;28;19999;-81
2022/12/21 10:02:51;;;;;;;;;;;16.50;78.90;;;;;;5058133;28;19917;-81
2022/12/21 10:05:26;;;;;;;;;;;16.50;79.20;;;;;;5014259;28;19913;-81
2022/12/21 10:08:18;;;;;;;;;;;16.50;79.40;;;;;;5051053;28;19909;-81
2022/12/21 10:10:44;;;;;;;;;;;16.40;79.50;;;;;;5032896;28;19919;-81
2022/12/21 10:13:09;;;;;;;;;;;16.40;79.80;;;;;;5032575;28;19908;-81
2022/12/21 10:15:54;;;;;;;;;;;16.40;80.00;;;;;;5032510;28;19919;-81
2022/12/21 10:18:25;;;;;;;;;;;16.40;80.00;;;;;;5032452;28;20281;-81
2022/12/21 10:21:04;;;;;;;;;;;16.50;80.30;;;;;;5050848;28;20144;-80
2022/12/21 10:23:34;;;;;;;;;;;16.50;80.30;;;;;;5051037;28;19939;-81
2022/12/21 10:26:03;;;;;;;;;;;16.60;80.10;;;;;;5048895;28;19916;-81
2022/12/21 10:28:39;;;;;;;;;;;16.60;79.80;;;;;;5049113;28;19913;-81
2022/12/21 10:31:12;;;;;;;;;;;16.70;79.50;;;;;;5047195;28;19913;-81
2022/12/21 10:33:42;;;;;;;;;;;16.80;79.20;;;;;;5048132;28;19909;-81
2022/12/21 10:36:17;;;;;;;;;;;16.90;78.80;;;;;;5047107;28;19924;-80
2022/12/21 10:38:44;;;;;;;;;;;17.00;78.00;;;;;;5047652;28;19908;-81
2022/12/21 10:41:16;;;;;;;;;;;17.10;77.10;;;;;;5049213;28;19915;-81
2022/12/21 10:43:42;;;;;;;;;;;17.20;76.40;;;;;;5048703;28;19908;-81
2022/12/21 10:46:07;;;;;;;;;;;17.30;76.10;;;;;;5047812;28;19917;-81
2022/12/21 10:48:33;;;;;;;;;;;17.30;75.90;;;;;;5047489;28;19909;-81
2022/12/21 10:51:25;;;;;;;;;;;17.30;75.70;;;;;;5049632;28;20179;-81
2022/12/21 10:54:00;;;;;;;;;;;17.30;75.90;;;;;;5029916;28;19915;-80
2022/12/21 10:56:29;;;;;;;;;;;17.20;76.40;;;;;;5050674;28;19967;-79
2022/12/21 10:58:59;;;;;;;;;;;17.20;76.70;;;;;;5046725;28;20092;-80
2022/12/21 11:01:28;;;;;;;;;;;17.10;77.10;;;;;;5047926;28;19928;-81
2022/12/21 11:04:10;;;;;;;;;;;17.10;77.80;;;;;;5031632;28;19917;-81
2022/12/21 11:06:39;;;;;;;;;;;17.00;78.20;;;;;;5030229;28;20078;-80
2022/12/21 11:09:24;;;;;;;;;;;16.90;78.70;;;;;;5046473;28;19909;-81
2022/12/21 11:11:52;;;;;;;;;;;16.90;79.00;;;;;;5047978;28;20003;-81
2022/12/21 11:14:19;;;;;;;;;;;16.90;79.50;;;;;;5046251;28;19990;-81
2022/12/21 11:16:47;;;;;;;;;;;16.80;79.80;;;;;;5049577;28;20019;-81
2022/12/21 11:19:17;;;;;;;;;;;16.80;79.80;;;;;;5049225;28;19917;-80
2022/12/21 11:21:46;;;;;;;;;;;16.70;80.00;;;;;;5051211;28;20302;-80
2022/12/21 11:25:01;;;;;;;;;;;16.70;80.20;;;;;;5057092;28;19913;-81
2022/12/21 11:27:52;;;;;;;;;;;16.70;80.20;;;;;;4994941;28;19921;-80
2022/12/21 11:30:26;;;;;;;;;;;16.70;80.40;;;;;;5000978;28;19913;-80
2022/12/21 11:32:55;;;;;;;;;;;16.70;80.50;;;;;;5027072;28;19968;-80
2022/12/21 11:35:28;;;;;;;;;;;16.60;80.50;;;;;;5058110;28;19919;-81
2022/12/21 11:38:10;;;;;;;;;;;16.60;80.70;;;;;;5058410;28;19918;-81
2022/12/21 11:40:36;;;;;;;;;;;16.60;81.40;;;;;;5054641;28;19920;-81
2022/12/21 11:43:14;;;;;;;;;;;16.60;80.70;;;;;;5050186;28;20163;-81
2022/12/21 11:45:52;;;;;;;;;;;16.60;80.70;;;;;;5045526;28;20301;-81
2022/12/21 11:48:30;;;;;;;;;;;16.60;80.60;;;;;;5049132;28;19909;-81
2022/12/21 11:50:55;;;;;;;;;;;16.60;80.50;;;;;;5046024;28;19969;-81
2022/12/21 11:53:30;;;;;;;;;;;16.60;80.50;;;;;;5046814;28;20163;-80
2022/12/21 11:56:04;;;;;;;;;;;16.60;80.60;;;;;;5045486;28;19909;-81
2022/12/21 11:58:39;;;;;;;;;;;16.60;80.70;;;;;;5045091;28;19982;-81
2022/12/21 12:01:10;;;;;;;;;;;16.50;80.70;;;;;;5045589;28;20342;-82
2022/12/21 12:03:36;;;;;;;;;;;16.50;80.80;;;;;;5045374;28;19920;-81
2022/12/21 12:06:11;;;;;;;;;;;16.50;80.70;;;;;;5047397;28;20355;-80
2022/12/21 12:08:49;;;;;;;;;;;16.50;80.90;;;;;;5049984;28;19908;-81
2022/12/21 12:11:24;;;;;;;;;;;16.50;80.80;;;;;;5044586;28;20015;-81
2022/12/21 12:13:58;;;;;;;;;;;16.50;80.90;;;;;;5045730;28;20289;-81
2022/12/21 12:16:32;;;;;;;;;;;16.50;81.10;;;;;;5044999;28;19909;-81
2022/12/21 12:19:06;;;;;;;;;;;16.50;81.50;;;;;;5046532;28;19913;-80
2022/12/21 12:21:40;;;;;;;;;;;16.50;81.50;;;;;;5046649;28;19927;-81
2022/12/21 12:24:28;;;;;;;;;;;16.60;81.30;;;;;;5045207;28;20313;-81
2022/12/21 12:27:13;;;;;;;;;;;16.70;80.60;;;;;;5046282;28;20035;-81
2022/12/21 12:29:48;;;;;;;;;;;16.80;79.60;;;;;;5047253;28;20155;-80
2022/12/21 12:32:28;;;;;;;;;;;16.90;78.70;;;;;;5047628;28;20228;-81
2022/12/21 12:34:56;;;;;;;;;;;17.10;77.70;;;;;;5047578;28;20212;-81
2022/12/21 12:37:28;;;;;;;;;;;17.30;76.50;;;;;;5048620;28;20511;-80
2022/12/21 12:40:17;;;;;;;;;;;17.40;75.40;;;;;;5046585;28;19913;-80
2022/12/21 12:43:05;;;;;;;;;;;17.50;74.50;;;;;;5047962;28;19909;-81
2022/12/21 12:45:37;;;;;;;;;;;17.60;73.70;;;;;;5048552;28;20177;-81
2022/12/21 12:48:18;;;;;;;;;;;17.60;73.10;;;;;;5053809;28;20003;-80
2022/12/21 12:50:50;;;;;;;;;;;17.70;72.90;;;;;;5055981;28;19908;-80
2022/12/21 12:53:22;;;;;;;;;;;17.60;72.80;;;;;;5051951;28;19939;-81
2022/12/21 12:55:57;;;;;;;;;;;17.60;72.80;;;;;;5050631;28;20484;-81
2022/12/21 12:58:41;;;;;;;;;;;17.50;73.10;;;;;;5045449;28;20274;-81
2022/12/21 13:01:18;;;;;;;;;;;17.50;73.60;;;;;;5047359;28;20180;-81
2022/12/21 13:04:04;;;;;;;;;;;17.40;74.00;;;;;;5047964;28;20271;-80
2022/12/21 13:06:45;;;;;;;;;;;17.30;74.50;;;;;;5051945;28;19916;-81
2022/12/21 13:09:16;;;;;;;;;;;17.20;74.90;;;;;;5055003;28;19916;-81
2022/12/21 13:11:52;;;;;;;;;;;17.10;75.30;;;;;;5047453;28;20174;-81
2022/12/21 13:14:18;;;;;;;;;;;17.10;75.70;;;;;;5048690;28;20194;-81
2022/12/21 13:16:53;;;;;;;;;;;17.10;76.20;;;;;;5046501;28;19982;-81
2022/12/21 13:19:19;;;;;;;;;;;17.00;76.40;;;;;;5048023;28;19919;-81
2022/12/21 13:21:47;;;;;;;;;;;16.90;76.80;;;;;;5047851;28;19908;-81
2022/12/21 13:24:25;;;;;;;;;;;16.90;77.10;;;;;;5046978;28;19909;-81
2022/12/21 13:26:52;;;;;;;;;;;16.90;77.40;;;;;;5047827;28;19915;-80
2022/12/21 13:29:23;;;;;;;;;;;16.90;77.70;;;;;;5048433;28;19912;-81
2022/12/21 13:31:54;;;;;;;;;;;16.80;77.90;;;;;;5055656;28;19909;-81
2022/12/21 13:34:23;;;;;;;;;;;16.80;78.20;;;;;;5072805;28;19912;-80
2022/12/21 13:36:49;;;;;;;;;;;16.80;78.40;;;;;;5052102;28;19908;-80
2022/12/21 13:39:47;;;;;;;;;;;16.70;78.50;;;;;;5027292;28;19919;-81
2022/12/21 13:42:19;;;;;;;;;;;16.70;78.80;;;;;;5026006;28;20161;-80
2022/12/21 13:44:48;;;;;;;;;;;16.70;79.00;;;;;;5027799;28;20112;-82
2022/12/21 13:47:15;;;;;;;;;;;16.70;81.00;;;;;;5024660;28;19916;-82
2022/12/21 13:49:43;;;;;;;;;;;16.70;82.80;;;;;;5025474;28;19933;-82
2022/12/21 13:52:14;;;;;;;;;;;16.60;81.60;;;;;;5035048;28;19924;-82
2022/12/21 13:54:46;;;;;;;;;;;16.60;81.40;;;;;;5024227;28;20116;-82
2022/12/21 13:57:12;;;;;;;;;;;16.60;81.70;;;;;;5024491;28;20009;-82
2022/12/21 13:59:37;;;;;;;;;;;16.50;81.90;;;;;;5026025;28;20406;-82
2022/12/21 14:02:12;;;;;;;;;;;16.50;82.10;;;;;;5030464;28;20094;-81
2022/12/21 14:04:43;;;;;;;;;;;16.50;82.10;;;;;;5029391;28;20001;-81
2022/12/21 14:07:12;;;;;;;;;;;16.50;82.30;;;;;;5029054;28;19909;-81
2022/12/21 14:10:01;;;;;;;;;;;16.40;82.20;;;;;;5029357;28;20067;-81
2022/12/21 14:12:34;;;;;;;;;;;16.40;82.20;;;;;;5041074;28;19943;-81
2022/12/21 14:15:05;;;;;;;;;;;16.40;82.40;;;;;;5057139;28;19916;-81
2022/12/21 14:17:41;;;;;;;;;;;16.40;83.30;;;;;;5054116;28;19969;-81
2022/12/21 14:20:27;;;;;;;;;;;16.30;82.80;;;;;;5048830;28;19986;-81
2022/12/21 14:22:57;;;;;;;;;;;16.40;83.00;;;;;;5049513;28;19915;-81
2022/12/21 14:25:34;;;;;;;;;;;16.40;82.90;;;;;;5048852;28;20245;-81
2022/12/21 14:28:12;;;;;;;;;;;16.50;82.60;;;;;;5084145;28;20247;-81
2022/12/21 14:30:46;;;;;;;;;;;16.50;82.20;;;;;;5071938;28;20011;-81
2022/12/21 14:33:16;;;;;;;;;;;16.60;81.90;;;;;;5045708;28;19962;-81
2022/12/21 14:35:42;;;;;;;;;;;16.60;81.60;;;;;;5058191;28;19912;-81
2022/12/21 14:38:21;;;;;;;;;;;16.60;81.10;;;;;;5056203;28;20080;-81
2022/12/21 14:40:54;;;;;;;;;;;16.70;80.80;;;;;;5052720;28;19977;-81
2022/12/21 14:43:20;;;;;;;;;;;16.70;80.50;;;;;;5052291;28;19916;-82
2022/12/21 14:45:52;;;;;;;;;;;16.80;80.40;;;;;;5067977;28;19912;-82
2022/12/21 14:48:33;;;;;;;;;;;16.80;80.20;;;;;;5049997;28;20024;-81
2022/12/21 14:51:03;;;;;;;;;;;16.80;80.10;;;;;;5049672;28;19915;-81
2022/12/21 14:53:31;;;;;;;;;;;16.80;80.20;;;;;;5045626;28;19912;-81
2022/12/21 14:56:17;;;;;;;;;;;16.80;80.20;;;;;;5073014;28;19917;-82